createdAt,value
2018-08-20T00:01:35.606Z,3.40
2018-08-20T00:04:06.344Z,3.35
2018-08-20T00:06:48.825Z,3.05
2018-08-20T00:09:18.529Z,3.10
2018-08-20T00:11:47.763Z,2.85
2018-08-20T00:14:19.565Z,2.67
2018-08-20T00:16:48.383Z,3.37
2018-08-20T00:19:17.164Z,3.10
2018-08-20T00:21:46.239Z,2.72
2018-08-20T00:24:15.025Z,2.67
2018-08-20T00:26:43.757Z,2.62
2018-08-20T00:29:12.498Z,3.08
2018-08-20T00:31:41.276Z,3.37
2018-08-20T00:34:10.068Z,3.05
2018-08-20T00:36:38.885Z,2.67
2018-08-20T00:39:09.660Z,2.90
2018-08-20T00:41:38.471Z,2.42
2018-08-20T00:44:11.084Z,2.17
2018-08-20T00:46:39.889Z,2.40
2018-08-20T00:49:08.661Z,2.25
2018-08-20T00:51:37.403Z,2.10
2018-08-20T00:54:06.142Z,2.58
2018-08-20T00:56:34.935Z,2.40
2018-08-20T00:59:04.159Z,2.42
2018-08-20T01:01:33.543Z,2.17
2018-08-20T01:04:03.074Z,2.45
2018-08-20T01:06:32.263Z,2.87
2018-08-20T01:09:01.151Z,2.30
2018-08-20T01:11:29.883Z,2.22
2018-08-20T01:13:58.747Z,2.42
2018-08-20T01:16:27.489Z,2.20
2018-08-20T01:18:56.293Z,2.02
2018-08-20T01:21:25.052Z,1.85
2018-08-20T01:23:53.762Z,1.77
2018-08-20T01:26:22.570Z,1.92
2018-08-20T01:28:51.377Z,2.17
2018-08-20T01:31:20.210Z,1.98
2018-08-20T01:33:48.971Z,2.00
2018-08-20T01:36:17.730Z,2.08
2018-08-20T01:38:46.449Z,1.77
2018-08-20T01:41:15.182Z,1.55
2018-08-20T01:43:43.907Z,1.67
2018-08-20T01:46:12.661Z,1.60
2018-08-20T01:48:41.502Z,1.80
2018-08-20T01:51:10.324Z,1.65
2018-08-20T01:53:39.034Z,1.75
2018-08-20T01:56:07.825Z,1.25
2018-08-20T01:58:36.568Z,1.77
2018-08-20T02:01:05.393Z,1.62
2018-08-20T02:03:34.222Z,1.72
2018-08-20T02:06:02.998Z,1.77
2018-08-20T02:08:31.825Z,1.35
2018-08-20T02:11:00.654Z,1.80
2018-08-20T02:13:29.493Z,1.67
2018-08-20T02:15:58.297Z,1.50
2018-08-20T02:18:27.073Z,1.67
2018-08-20T02:20:55.846Z,1.50
2018-08-20T02:23:24.741Z,1.52
2018-08-20T02:25:53.623Z,1.45
2018-08-20T02:28:22.644Z,1.12
2018-08-20T02:30:51.462Z,1.10
2018-08-20T02:33:20.417Z,1.20
2018-08-20T02:35:49.191Z,1.55
2018-08-20T02:38:17.997Z,1.47
2018-08-20T02:40:46.743Z,1.40
2018-08-20T02:43:15.569Z,1.22
2018-08-20T02:45:44.305Z,1.27
2018-08-20T02:48:13.031Z,1.37
2018-08-20T02:50:41.774Z,1.57
2018-08-20T02:53:10.563Z,1.40
2018-08-20T02:55:39.465Z,1.37
2018-08-20T02:58:08.338Z,1.67
2018-08-20T03:00:37.113Z,1.07
2018-08-20T03:03:06.052Z,1.17
2018-08-20T03:05:35.190Z,1.22
2018-08-20T03:08:04.020Z,1.17
2018-08-20T03:10:32.820Z,1.30
2018-08-20T03:13:01.597Z,1.32
2018-08-20T03:15:30.441Z,1.17
2018-08-20T03:17:59.201Z,1.20
2018-08-20T03:20:27.969Z,1.30
2018-08-20T03:22:56.671Z,1.40
2018-08-20T03:25:25.494Z,1.47
2018-08-20T03:27:54.275Z,1.20
2018-08-20T03:30:23.022Z,1.25
2018-08-20T03:32:51.817Z,1.37
2018-08-20T03:35:20.556Z,1.12
2018-08-20T03:37:49.275Z,1.15
2018-08-20T03:40:18.128Z,1.35
2018-08-20T03:42:47.081Z,1.62
2018-08-20T03:45:15.869Z,1.10
2018-08-20T03:47:44.684Z,1.20
2018-08-20T03:50:14.813Z,1.10
2018-08-20T03:52:43.684Z,1.15
2018-08-20T03:55:12.436Z,0.80
2018-08-20T03:57:41.244Z,0.90
2018-08-20T04:00:11.335Z,1.35
2018-08-20T04:02:40.133Z,0.78
2018-08-20T04:05:08.920Z,1.00
2018-08-20T04:07:37.687Z,1.25
2018-08-20T04:10:06.475Z,1.10
2018-08-20T04:12:35.298Z,0.98
2018-08-20T04:15:04.285Z,1.27
2018-08-20T04:17:33.052Z,1.20
2018-08-20T04:20:01.940Z,1.27
2018-08-20T04:22:30.784Z,1.02
2018-08-20T04:24:59.557Z,0.93
2018-08-20T04:27:28.360Z,1.05
2018-08-20T04:29:57.161Z,1.22
2018-08-20T04:32:25.879Z,1.40
2018-08-20T04:34:54.647Z,1.00
2018-08-20T04:37:23.425Z,1.15
2018-08-20T04:39:52.151Z,0.90
2018-08-20T04:42:20.939Z,1.25
2018-08-20T04:44:49.726Z,1.30
2018-08-20T04:47:18.483Z,0.98
2018-08-20T04:49:47.282Z,1.30
2018-08-20T04:52:16.068Z,1.40
2018-08-20T04:54:44.881Z,1.35
2018-08-20T04:57:13.622Z,0.98
2018-08-20T04:59:42.388Z,1.32
2018-08-20T05:02:11.197Z,1.15
2018-08-20T05:04:39.914Z,1.12
2018-08-20T05:07:08.655Z,1.32
2018-08-20T05:09:37.519Z,1.35
2018-08-20T05:12:06.302Z,1.35
2018-08-20T05:14:35.100Z,1.10
2018-08-20T05:17:04.102Z,1.62
2018-08-20T05:19:32.899Z,1.45
2018-08-20T05:22:01.637Z,1.22
2018-08-20T05:24:30.405Z,1.40
2018-08-20T05:26:59.208Z,1.25
2018-08-20T05:29:28.048Z,1.20
2018-08-20T05:31:56.776Z,1.65
2018-08-20T05:34:25.504Z,1.55
2018-08-20T05:36:54.306Z,1.30
2018-08-20T05:39:23.067Z,1.12
2018-08-20T05:41:51.821Z,1.30
2018-08-20T05:44:20.962Z,1.30
2018-08-20T05:46:49.848Z,1.32
2018-08-20T05:49:18.592Z,1.22
2018-08-20T05:51:47.364Z,1.57
2018-08-20T05:54:16.154Z,2.00
2018-08-20T05:56:45.022Z,2.95
2018-08-20T05:59:13.840Z,2.15
2018-08-20T06:01:42.663Z,2.37
2018-08-20T06:04:11.497Z,2.05
2018-08-20T06:06:40.231Z,2.45
2018-08-20T06:09:10.424Z,2.60
2018-08-20T06:11:39.169Z,2.62
2018-08-20T06:14:07.991Z,2.50
2018-08-20T06:16:36.756Z,2.60
2018-08-20T06:19:06.022Z,2.55
2018-08-20T06:21:34.958Z,2.47
2018-08-20T06:24:03.803Z,2.55
2018-08-20T06:26:32.614Z,3.02
2018-08-20T06:29:01.504Z,2.80
2018-08-20T06:31:30.255Z,3.33
2018-08-20T06:33:59.071Z,3.60
2018-08-20T06:36:27.858Z,4.00
2018-08-20T06:38:56.630Z,4.05
2018-08-20T06:41:25.428Z,2.85
2018-08-20T06:43:54.238Z,2.67
2018-08-20T06:46:23.101Z,3.25
2018-08-20T06:48:51.917Z,3.87
2018-08-20T06:51:20.719Z,3.60
2018-08-20T06:53:49.477Z,2.77
2018-08-20T06:56:18.283Z,3.47
2018-08-20T06:58:47.107Z,3.70
2018-08-20T07:01:15.948Z,3.67
2018-08-20T07:03:44.758Z,3.50
2018-08-20T07:06:13.581Z,3.60
2018-08-20T07:08:42.370Z,3.37
2018-08-20T07:11:11.183Z,3.40
2018-08-20T07:13:39.940Z,3.42
2018-08-20T07:16:09.478Z,3.33
2018-08-20T07:18:38.320Z,3.72
2018-08-20T07:21:07.203Z,3.20
2018-08-20T07:23:35.994Z,3.87
2018-08-20T07:26:04.909Z,3.08
2018-08-20T07:28:33.748Z,3.12
2018-08-20T07:31:02.601Z,2.95
2018-08-20T07:33:31.624Z,3.62
2018-08-20T07:36:00.437Z,2.95
2018-08-20T07:38:29.246Z,3.05
2018-08-20T07:40:58.012Z,3.62
2018-08-20T07:43:26.794Z,3.12
2018-08-20T07:45:55.630Z,3.70
2018-08-20T07:48:24.468Z,3.37
2018-08-20T07:50:53.327Z,3.52
2018-08-20T07:53:22.086Z,4.00
2018-08-20T07:55:50.834Z,3.65
2018-08-20T07:58:19.628Z,4.08
2018-08-20T08:00:48.491Z,3.60
2018-08-20T08:03:21.342Z,3.12
2018-08-20T08:05:50.179Z,2.85
2018-08-20T08:08:18.935Z,3.10
2018-08-20T08:10:47.804Z,3.22
2018-08-20T08:13:16.696Z,3.00
2018-08-20T08:15:45.479Z,3.67
2018-08-20T08:18:14.229Z,3.08
2018-08-20T08:20:42.955Z,3.12
2018-08-20T08:23:11.752Z,2.90
2018-08-20T08:25:40.619Z,3.05
2018-08-20T08:28:09.453Z,3.08
2018-08-20T08:30:38.289Z,2.98
2018-08-20T08:33:07.830Z,3.75
2018-08-20T08:35:36.626Z,3.47
2018-08-20T08:38:05.800Z,3.45
2018-08-20T08:40:34.546Z,3.35
2018-08-20T08:43:03.387Z,3.52
2018-08-20T08:45:32.155Z,3.90
2018-08-20T08:48:00.995Z,3.47
2018-08-20T08:50:29.932Z,2.90
2018-08-20T08:52:58.778Z,3.42
2018-08-20T08:55:27.577Z,3.45
2018-08-20T08:57:56.356Z,2.80
2018-08-20T09:00:25.190Z,3.30
2018-08-20T09:02:53.917Z,3.22
2018-08-20T09:05:22.715Z,3.77
2018-08-20T09:07:51.510Z,3.35
2018-08-20T09:10:20.284Z,3.70
2018-08-20T09:12:49.125Z,3.50
2018-08-20T09:15:18.600Z,3.60
2018-08-20T09:17:47.350Z,3.30
2018-08-20T09:20:17.418Z,3.80
2018-08-20T09:22:46.248Z,3.17
2018-08-20T09:25:15.646Z,3.05
2018-08-20T09:27:45.155Z,3.67
2018-08-20T09:30:23.252Z,3.02
2018-08-20T09:32:52.119Z,3.33
2018-08-20T09:35:20.973Z,3.08
2018-08-20T09:37:49.724Z,3.08
2018-08-20T09:40:18.497Z,3.45
2018-08-20T09:42:47.248Z,2.62
2018-08-20T09:45:16.051Z,3.17
2018-08-20T09:47:44.821Z,2.50
2018-08-20T09:50:16.150Z,3.27
2018-08-20T09:52:45.336Z,2.67
2018-08-20T09:55:14.165Z,2.92
2018-08-20T09:57:43.005Z,2.92
2018-08-20T10:00:18.160Z,2.92
2018-08-20T10:02:47.119Z,3.17
2018-08-20T10:05:16.311Z,2.98
2018-08-20T10:07:45.606Z,2.50
2018-08-20T10:10:14.506Z,2.40
2018-08-20T10:12:43.826Z,3.15
2018-08-20T10:15:12.895Z,2.98
2018-08-20T10:17:41.989Z,2.40
2018-08-20T10:20:12.753Z,2.55
2018-08-20T10:22:41.904Z,2.55
2018-08-20T10:25:10.811Z,2.40
2018-08-20T10:27:39.559Z,2.70
2018-08-20T10:30:09.813Z,2.62
2018-08-20T10:32:38.672Z,2.50
2018-08-20T10:35:07.730Z,2.33
2018-08-20T10:37:36.792Z,2.90
2018-08-20T10:40:07.889Z,1.95
2018-08-20T10:42:37.211Z,2.25
2018-08-20T10:45:13.657Z,2.75
2018-08-20T10:47:42.512Z,2.08
2018-08-20T10:50:14.646Z,2.42
2018-08-20T10:52:44.740Z,2.33
2018-08-20T10:55:13.708Z,2.40
2018-08-20T10:57:43.216Z,1.85
2018-08-20T11:00:12.628Z,1.62
2018-08-20T11:02:41.532Z,1.67
2018-08-20T11:05:13.186Z,2.00
2018-08-20T11:07:41.990Z,1.85
2018-08-20T11:10:10.995Z,1.55
2018-08-20T11:12:39.937Z,1.90
2018-08-20T11:15:10.314Z,1.87
2018-08-20T11:17:39.256Z,1.70
2018-08-20T11:20:12.437Z,2.00
2018-08-20T11:22:41.454Z,2.47
2018-08-20T11:25:11.111Z,2.47
2018-08-20T11:27:40.072Z,1.77
2018-08-20T11:30:10.289Z,2.05
2018-08-20T11:32:39.102Z,2.17
2018-08-20T11:35:08.775Z,2.08
2018-08-20T11:37:37.633Z,2.60
2018-08-20T11:40:07.452Z,2.02
2018-08-20T11:42:36.238Z,2.45
2018-08-20T11:45:05.541Z,2.30
2018-08-20T11:47:34.285Z,2.33
2018-08-20T11:50:03.204Z,2.30
2018-08-20T11:52:31.977Z,2.37
2018-08-20T11:55:01.553Z,2.00
2018-08-20T11:57:30.334Z,3.42
2018-08-20T11:59:59.123Z,3.50
2018-08-20T12:02:27.926Z,2.90
2018-08-20T12:04:56.731Z,3.80
2018-08-20T12:07:25.642Z,2.95
2018-08-20T12:09:54.406Z,3.40
2018-08-20T12:12:23.190Z,3.50
2018-08-20T12:14:52.007Z,3.05
2018-08-20T12:17:20.902Z,3.60
2018-08-20T12:19:49.716Z,3.12
2018-08-20T12:22:18.566Z,3.00
2018-08-20T12:24:47.315Z,2.90
2018-08-20T12:27:16.142Z,2.85
2018-08-20T12:29:44.944Z,3.00
2018-08-20T12:32:13.755Z,3.02
2018-08-20T12:34:42.564Z,3.00
2018-08-20T12:37:11.330Z,2.33
2018-08-20T12:39:40.231Z,2.90
2018-08-20T12:42:09.131Z,2.40
2018-08-20T12:44:37.965Z,3.17
2018-08-20T12:47:06.907Z,2.77
2018-08-20T12:49:35.655Z,2.40
2018-08-20T12:52:04.465Z,2.35
2018-08-20T12:54:33.317Z,2.70
2018-08-20T12:57:02.227Z,2.55
2018-08-20T12:59:31.008Z,2.12
2018-08-20T13:01:59.931Z,2.30
2018-08-20T13:04:28.677Z,2.37
2018-08-20T13:06:57.549Z,2.52
2018-08-20T13:09:26.362Z,2.35
2018-08-20T13:11:55.142Z,1.98
2018-08-20T13:14:23.917Z,2.35
2018-08-20T13:16:52.749Z,2.02
2018-08-20T13:19:21.611Z,2.00
2018-08-20T13:21:50.656Z,2.02
2018-08-20T13:24:19.583Z,2.22
2018-08-20T13:26:48.373Z,2.05
2018-08-20T13:29:17.180Z,2.22
2018-08-20T13:31:46.059Z,2.00
2018-08-20T13:34:14.819Z,1.87
2018-08-20T13:36:43.683Z,2.08
2018-08-20T13:39:12.479Z,1.95
2018-08-20T13:41:41.357Z,2.17
2018-08-20T13:44:10.179Z,1.87
2018-08-20T13:46:39.145Z,2.20
2018-08-20T13:49:08.051Z,2.02
2018-08-20T13:51:36.840Z,1.42
2018-08-20T13:54:05.708Z,1.87
2018-08-20T13:56:34.496Z,1.82
2018-08-20T13:59:03.255Z,1.98
2018-08-20T14:01:32.024Z,1.90
2018-08-20T14:04:00.826Z,1.70
2018-08-20T14:06:29.838Z,1.37
2018-08-20T14:08:58.667Z,1.62
2018-08-20T14:11:27.429Z,1.82
2018-08-20T14:13:56.179Z,1.77
2018-08-20T14:16:24.950Z,1.57
2018-08-20T14:18:53.768Z,1.80
2018-08-20T14:21:22.576Z,1.70
2018-08-20T14:23:51.432Z,1.70
2018-08-20T14:26:20.206Z,1.72
2018-08-20T14:28:49.006Z,1.32
2018-08-20T14:31:17.895Z,2.05
2018-08-20T14:33:46.681Z,1.47
2018-08-20T14:36:15.544Z,1.70
2018-08-20T14:38:44.366Z,2.15
2018-08-20T14:41:13.165Z,1.50
2018-08-20T14:43:41.962Z,1.80
2018-08-20T14:46:16.170Z,1.57
2018-08-20T14:48:44.974Z,1.30
2018-08-20T14:51:13.859Z,1.80
2018-08-20T14:53:42.721Z,1.47
2018-08-20T14:56:11.605Z,1.70
2018-08-20T14:58:40.420Z,1.70
2018-08-20T15:01:09.375Z,1.65
2018-08-20T15:03:38.190Z,1.67
2018-08-20T15:06:07.081Z,2.02
2018-08-20T15:08:38.369Z,1.50
2018-08-20T15:11:07.255Z,1.80
2018-08-20T15:13:36.268Z,1.80
2018-08-20T15:16:05.237Z,1.62
2018-08-20T15:18:34.106Z,1.55
2018-08-20T15:21:03.407Z,1.90
2018-08-20T15:23:32.268Z,1.82
2018-08-20T15:26:01.092Z,2.40
2018-08-20T15:28:29.916Z,3.25
2018-08-20T15:30:58.986Z,2.87
2018-08-20T15:33:27.889Z,2.35
2018-08-20T15:35:56.922Z,2.30
2018-08-20T15:38:26.014Z,2.30
2018-08-20T15:40:54.907Z,2.20
2018-08-20T15:43:23.748Z,2.47
2018-08-20T15:45:52.595Z,2.62
2018-08-20T15:48:21.395Z,2.47
2018-08-20T15:50:50.308Z,2.45
2018-08-20T15:53:19.189Z,2.27
2018-08-20T15:55:48.095Z,2.12
2018-08-20T15:58:16.912Z,2.60
2018-08-20T16:00:45.763Z,2.42
2018-08-20T16:03:14.572Z,2.60
2018-08-20T16:05:43.453Z,2.90
2018-08-20T16:08:12.305Z,2.65
2018-08-20T16:10:41.142Z,2.52
2018-08-20T16:13:09.925Z,3.08
2018-08-20T16:15:38.777Z,3.22
2018-08-20T16:18:07.612Z,3.22
2018-08-20T16:20:36.441Z,3.67
2018-08-20T16:23:05.315Z,3.55
2018-08-20T16:25:34.210Z,3.87
2018-08-20T16:28:03.015Z,3.87
2018-08-20T16:30:32.843Z,3.42
2018-08-20T16:33:02.057Z,4.40
2018-08-20T16:35:32.208Z,5.20
2018-08-20T16:38:01.290Z,4.75
2018-08-20T16:40:30.218Z,5.08
2018-08-20T16:42:59.104Z,5.50
2018-08-20T16:45:28.091Z,5.85
2018-08-20T16:47:56.991Z,5.78
2018-08-20T16:50:25.795Z,6.05
2018-08-20T16:52:54.690Z,5.42
2018-08-20T16:55:23.570Z,5.62
2018-08-20T16:57:52.401Z,5.28
2018-08-20T17:00:21.445Z,5.78
2018-08-20T17:02:50.425Z,5.60
2018-08-20T17:05:19.292Z,5.25
2018-08-20T17:07:48.155Z,4.67
2018-08-20T17:10:17.011Z,5.25
2018-08-20T17:12:45.909Z,5.17
2018-08-20T17:15:16.271Z,4.72
2018-08-20T17:17:45.119Z,5.17
2018-08-20T17:20:14.287Z,4.60
2018-08-20T17:22:43.493Z,5.45
2018-08-20T17:25:12.345Z,4.70
2018-08-20T17:27:42.718Z,4.90
2018-08-20T17:30:11.623Z,4.53
2018-08-20T17:32:40.507Z,4.10
2018-08-20T17:35:10.192Z,4.95
2018-08-20T17:37:39.085Z,4.67
2018-08-20T17:40:10.635Z,5.70
2018-08-20T17:42:39.470Z,4.95
2018-08-20T17:45:09.594Z,4.65
2018-08-20T17:47:40.159Z,4.40
2018-08-20T17:50:24.089Z,4.40
2018-08-20T17:52:52.918Z,4.42
2018-08-20T17:55:21.782Z,4.67
2018-08-20T17:57:50.712Z,3.50
2018-08-20T18:00:26.672Z,4.20
2018-08-20T18:02:55.700Z,4.15
2018-08-20T18:05:25.458Z,4.83
2018-08-20T18:07:55.104Z,3.65
2018-08-20T18:10:23.933Z,3.77
2018-08-20T18:12:52.897Z,4.20
2018-08-20T18:15:21.777Z,3.40
2018-08-20T18:17:50.565Z,3.62
2018-08-20T18:20:19.370Z,3.12
2018-08-20T18:22:48.219Z,3.65
2018-08-20T18:25:17.063Z,3.80
2018-08-20T18:27:45.960Z,3.22
2018-08-20T18:30:16.972Z,3.12
2018-08-20T18:32:46.441Z,2.98
2018-08-20T18:35:22.688Z,2.65
2018-08-20T18:37:52.208Z,2.85
2018-08-20T18:40:21.078Z,3.00
2018-08-20T18:42:49.972Z,2.95
2018-08-20T18:45:18.855Z,2.80
2018-08-20T18:47:47.703Z,3.10
2018-08-20T18:50:16.586Z,2.55
2018-08-20T18:52:45.645Z,3.10
2018-08-20T18:55:14.605Z,2.62
2018-08-20T18:57:43.605Z,3.22
2018-08-20T19:00:14.643Z,2.87
2018-08-20T19:03:01.237Z,2.50
2018-08-20T19:05:39.309Z,2.30
2018-08-20T19:08:12.718Z,2.65
2018-08-20T19:10:41.715Z,2.30
2018-08-20T19:13:10.714Z,2.22
2018-08-20T19:15:41.906Z,2.75
2018-08-20T19:18:13.092Z,3.17
2018-08-20T19:20:43.013Z,2.50
2018-08-20T19:23:12.210Z,2.55
2018-08-20T19:25:41.364Z,2.83
2018-08-20T19:28:19.290Z,2.37
2018-08-20T19:30:48.202Z,2.20
2018-08-20T19:33:22.335Z,2.42
2018-08-20T19:35:51.544Z,2.15
2018-08-20T19:38:20.534Z,2.10
2018-08-20T19:40:58.578Z,2.30
2018-08-20T19:43:30.861Z,2.35
2018-08-20T19:46:09.451Z,2.30
2018-08-20T19:48:38.424Z,2.05
2018-08-20T19:51:09.518Z,2.30
2018-08-20T19:53:38.392Z,2.02
2018-08-20T19:56:12.048Z,2.15
2018-08-20T19:58:44.104Z,2.20
2018-08-20T20:01:15.929Z,2.00
2018-08-20T20:04:07.690Z,2.00
2018-08-20T20:06:36.606Z,1.87
2018-08-20T20:09:08.710Z,2.00
2018-08-20T20:15:17.080Z,2.50
2018-08-20T20:17:49.081Z,2.05
2018-08-20T20:20:18.020Z,2.30
2018-08-20T20:22:46.893Z,2.27
2018-08-20T20:25:15.796Z,2.05
2018-08-20T20:27:44.602Z,2.10
2018-08-20T20:30:13.511Z,2.05
2018-08-20T20:32:42.402Z,2.87
2018-08-20T20:35:12.014Z,2.15
2018-08-20T20:37:41.568Z,2.47
2018-08-20T20:40:10.344Z,2.25
2018-08-20T20:42:39.193Z,2.70
2018-08-20T20:45:08.008Z,2.22
2018-08-20T20:47:36.845Z,2.40
2018-08-20T20:50:05.741Z,2.22
2018-08-20T20:52:34.621Z,2.10
2018-08-20T20:55:04.852Z,2.60
2018-08-20T20:57:33.616Z,1.90
2018-08-20T21:00:02.623Z,1.95
2018-08-20T21:02:31.513Z,2.33
2018-08-20T21:05:06.406Z,2.33
2018-08-20T21:07:35.579Z,1.92
2018-08-20T21:10:05.907Z,2.20
2018-08-20T21:12:34.813Z,2.17
2018-08-20T21:15:03.761Z,2.17
2018-08-20T21:17:34.903Z,1.70
2018-08-20T21:20:03.978Z,1.82
2018-08-20T21:22:35.634Z,2.30
2018-08-20T21:25:05.793Z,2.12
2018-08-20T21:27:34.623Z,1.85
2018-08-20T21:30:04.423Z,1.87
2018-08-20T21:32:33.215Z,2.08
2018-08-20T21:35:02.109Z,1.80
2018-08-20T21:37:30.916Z,1.90
2018-08-20T21:39:59.682Z,1.70
2018-08-20T21:42:44.774Z,1.85
2018-08-20T21:45:13.898Z,1.70
2018-08-20T21:47:42.746Z,2.40
2018-08-20T21:50:11.755Z,1.60
2018-08-20T21:52:40.568Z,1.40
2018-08-20T21:55:09.385Z,1.62
2018-08-20T21:57:41.623Z,1.55
2018-08-20T22:00:16.347Z,1.82
2018-08-20T22:02:53.393Z,1.47
2018-08-20T22:05:22.292Z,1.70
2018-08-20T22:07:51.125Z,1.40
2018-08-20T22:10:19.942Z,1.92
2018-08-20T22:12:48.868Z,1.85
2018-08-20T22:15:17.727Z,1.57
2018-08-20T22:17:46.541Z,1.40
2018-08-20T22:20:15.462Z,1.30
2018-08-20T22:22:44.345Z,1.57
2018-08-20T23:26:17.372Z,1.10
2018-08-20T23:29:17.520Z,0.98
2018-08-20T23:32:15.343Z,1.10
2018-08-20T23:35:13.272Z,1.05
2018-08-20T23:38:11.685Z,1.52
2018-08-20T23:41:10.523Z,1.10
2018-08-20T23:44:09.526Z,0.85
2018-08-20T23:47:07.570Z,1.10
2018-08-20T23:50:06.050Z,1.20
2018-08-20T23:53:04.860Z,0.93
2018-08-20T23:56:03.214Z,1.00
2018-08-20T23:59:01.334Z,0.65
